createdAt,value
2018-04-28T00:00:50.403Z,0
2018-04-28T00:01:51.130Z,0
2018-04-28T00:02:51.852Z,0
2018-04-28T00:03:52.582Z,0
2018-04-28T00:04:53.313Z,0
2018-04-28T00:05:54.387Z,0
2018-04-28T00:06:55.120Z,0
2018-04-28T00:07:55.890Z,0
2018-04-28T00:08:56.629Z,0
2018-04-28T00:09:57.356Z,0
2018-04-28T00:10:58.095Z,0
2018-04-28T00:11:58.821Z,0
2018-04-28T00:12:59.551Z,0
2018-04-28T00:14:00.276Z,0
2018-04-28T00:15:01.036Z,0
2018-04-28T00:16:01.740Z,0
2018-04-28T00:17:02.540Z,0
2018-04-28T00:18:03.277Z,0
2018-04-28T00:19:04.082Z,0
2018-04-28T00:20:04.816Z,0
2018-04-28T00:21:05.608Z,0
2018-04-28T00:22:06.695Z,0
2018-04-28T00:23:07.501Z,0
2018-04-28T00:24:08.229Z,0
2018-04-28T00:25:08.985Z,0
2018-04-28T00:26:09.800Z,0
2018-04-28T00:27:10.663Z,0
2018-04-28T00:28:11.409Z,0
2018-04-28T00:29:12.199Z,0
2018-04-28T00:30:12.930Z,0
2018-04-28T00:31:13.658Z,0
2018-04-28T00:32:14.442Z,0
2018-04-28T00:33:15.172Z,0
2018-04-28T00:34:15.891Z,0
2018-04-28T00:35:16.622Z,0
2018-04-28T00:36:17.363Z,0
2018-04-28T00:37:18.079Z,0
2018-04-28T00:38:18.884Z,0
2018-04-28T00:39:19.931Z,0
2018-04-28T00:40:20.674Z,0
2018-04-28T00:41:21.452Z,0
2018-04-28T00:42:22.186Z,0
2018-04-28T00:43:23.005Z,0
2018-04-28T00:44:24.094Z,0
2018-04-28T00:45:24.890Z,0
2018-04-28T00:46:25.613Z,0
2018-04-28T00:47:26.348Z,0
2018-04-28T00:48:27.135Z,0
2018-04-28T00:49:27.951Z,0
2018-04-28T00:50:28.734Z,0
2018-04-28T00:51:29.466Z,0
2018-04-28T00:52:30.179Z,0
2018-04-28T00:53:30.903Z,0
2018-04-28T00:54:31.624Z,0
2018-04-28T00:55:32.353Z,0
2018-04-28T00:56:33.384Z,0
2018-04-28T00:57:34.182Z,0
2018-04-28T00:58:34.912Z,0
2018-04-28T00:59:35.659Z,0
2018-04-28T01:00:36.452Z,0
2018-04-28T01:01:37.194Z,0
2018-04-28T01:02:37.959Z,0
2018-04-28T01:03:38.703Z,0
2018-04-28T01:04:39.427Z,0
2018-04-28T01:05:40.161Z,0
2018-04-28T01:06:40.886Z,0
2018-04-28T01:07:41.753Z,0
2018-04-28T01:08:42.592Z,0
2018-04-28T01:09:43.306Z,0
2018-04-28T01:10:44.036Z,0
2018-04-28T01:11:44.770Z,0
2018-04-28T01:12:45.548Z,0
2018-04-28T01:13:46.283Z,0
2018-04-28T01:14:47.079Z,0
2018-04-28T01:15:47.813Z,0
2018-04-28T01:16:48.554Z,0
2018-04-28T01:17:49.279Z,0
2018-04-28T01:18:50.026Z,0
2018-04-28T01:19:50.751Z,0
2018-04-28T01:20:51.483Z,0
2018-04-28T01:21:52.276Z,0
2018-04-28T01:22:53.005Z,0
2018-04-28T01:23:53.751Z,0
2018-04-28T01:24:54.532Z,0
2018-04-28T01:25:55.740Z,0
2018-04-28T01:26:56.466Z,0
2018-04-28T01:27:57.207Z,0
2018-04-28T01:28:57.973Z,0
2018-04-28T01:29:58.734Z,0
2018-04-28T01:30:59.458Z,0
2018-04-28T01:32:00.265Z,0
2018-04-28T01:33:01.030Z,0
2018-04-28T01:34:01.830Z,0
2018-04-28T01:35:02.603Z,0
2018-04-28T01:36:03.394Z,0
2018-04-28T01:37:04.217Z,0
2018-04-28T01:38:04.932Z,0
2018-04-28T01:39:05.726Z,0
2018-04-28T01:40:06.523Z,0
2018-04-28T01:41:07.295Z,0
2018-04-28T01:42:08.065Z,0
2018-04-28T01:43:08.872Z,0
2018-04-28T01:44:09.605Z,0
2018-04-28T01:45:10.390Z,0
2018-04-28T01:46:11.137Z,0
2018-04-28T01:47:11.872Z,0
2018-04-28T01:48:12.689Z,0
2018-04-28T01:49:13.419Z,0
2018-04-28T01:50:14.178Z,0
2018-04-28T01:51:14.941Z,0
2018-04-28T01:52:15.671Z,0
2018-04-28T01:53:16.395Z,0
2018-04-28T01:54:17.222Z,0
2018-04-28T01:55:17.941Z,0
2018-04-28T01:56:18.678Z,0
2018-04-28T01:57:19.405Z,0
2018-04-28T01:58:20.221Z,0
2018-04-28T01:59:21.020Z,0
2018-04-28T02:00:21.754Z,0
2018-04-28T02:01:22.498Z,0
2018-04-28T02:02:23.218Z,0
2018-04-28T02:03:24.021Z,0
2018-04-28T02:04:24.773Z,0
2018-04-28T02:05:25.607Z,0
2018-04-28T02:06:26.399Z,0
2018-04-28T02:07:27.130Z,0
2018-04-28T02:08:27.930Z,0
2018-04-28T02:09:28.650Z,0
2018-04-28T02:10:29.782Z,0
2018-04-28T02:11:30.542Z,0
2018-04-28T02:12:31.270Z,0
2018-04-28T02:13:31.992Z,0
2018-04-28T02:14:32.797Z,0
2018-04-28T02:15:33.633Z,0
2018-04-28T02:16:34.370Z,0
2018-04-28T02:17:35.102Z,0
2018-04-28T02:18:35.914Z,0
2018-04-28T02:19:36.634Z,0
2018-04-28T02:20:37.365Z,0
2018-04-28T02:21:38.094Z,0
2018-04-28T02:22:38.881Z,0
2018-04-28T02:23:39.615Z,0
2018-04-28T02:24:40.403Z,0
2018-04-28T02:25:41.124Z,0
2018-04-28T02:26:41.924Z,0
2018-04-28T02:27:42.705Z,0
2018-04-28T02:28:43.445Z,0
2018-04-28T02:29:44.223Z,0
2018-04-28T02:30:44.944Z,0
2018-04-28T02:31:45.680Z,0
2018-04-28T02:32:46.409Z,0
2018-04-28T02:33:47.240Z,0
2018-04-28T02:34:47.961Z,0
2018-04-28T02:35:48.683Z,0
2018-04-28T02:36:49.385Z,0
2018-04-28T02:37:50.191Z,0
2018-04-28T02:38:50.928Z,0
2018-04-28T02:39:51.737Z,0
2018-04-28T02:40:52.558Z,0
2018-04-28T02:41:53.336Z,0
2018-04-28T02:42:54.064Z,0
2018-04-28T02:43:54.792Z,0
2018-04-28T02:44:55.514Z,0
2018-04-28T02:45:56.515Z,0
2018-04-28T02:46:57.348Z,0
2018-04-28T02:47:58.135Z,0
2018-04-28T02:48:58.866Z,0
2018-04-28T02:49:59.726Z,0
2018-04-28T02:51:00.413Z,0
2018-04-28T02:52:01.144Z,0
2018-04-28T02:53:01.931Z,0
2018-04-28T02:54:02.656Z,0
2018-04-28T02:55:03.380Z,0
2018-04-28T02:56:04.113Z,0
2018-04-28T02:57:04.855Z,0
2018-04-28T02:58:06.032Z,0
2018-04-28T02:59:06.763Z,0
2018-04-28T03:00:07.492Z,0
2018-04-28T03:01:08.206Z,0
2018-04-28T03:02:08.943Z,0
2018-04-28T03:03:09.759Z,0
2018-04-28T03:04:10.481Z,0
2018-04-28T03:05:11.218Z,0
2018-04-28T03:06:11.950Z,0
2018-04-28T03:07:12.688Z,0
2018-04-28T03:08:13.409Z,0
2018-04-28T03:09:14.143Z,0
2018-04-28T03:10:14.880Z,0
2018-04-28T03:11:15.612Z,0
2018-04-28T03:12:16.405Z,0
2018-04-28T03:13:17.173Z,0
2018-04-28T03:14:17.898Z,0
2018-04-28T03:15:18.673Z,0
2018-04-28T03:16:19.405Z,0
2018-04-28T03:17:20.146Z,0
2018-04-28T03:18:20.915Z,0
2018-04-28T03:19:21.697Z,0
2018-04-28T03:20:22.427Z,0
2018-04-28T03:21:23.223Z,0
2018-04-28T03:22:23.952Z,0
2018-04-28T03:23:24.689Z,0
2018-04-28T03:24:25.555Z,4
2018-04-28T03:25:26.255Z,4
2018-04-28T03:26:27.059Z,4
2018-04-28T03:27:27.794Z,0
2018-04-28T03:28:28.521Z,4
2018-04-28T03:29:29.309Z,4
2018-04-28T03:30:30.042Z,4
2018-04-28T03:31:30.822Z,8
2018-04-28T03:32:31.551Z,8
2018-04-28T03:33:32.270Z,8
2018-04-28T03:34:33.070Z,8
2018-04-28T03:35:33.808Z,12
2018-04-28T03:36:34.543Z,16
2018-04-28T03:37:35.272Z,16
2018-04-28T03:38:35.991Z,20
2018-04-28T03:39:36.786Z,24
2018-04-28T03:40:37.518Z,28
2018-04-28T03:41:38.250Z,32
2018-04-28T03:42:38.979Z,36
2018-04-28T03:43:39.758Z,40
2018-04-28T03:44:40.486Z,44
2018-04-28T03:45:41.295Z,52
2018-04-28T03:46:42.052Z,60
2018-04-28T03:47:42.785Z,68
2018-04-28T03:48:43.515Z,76
2018-04-28T03:49:44.323Z,92
2018-04-28T03:50:45.107Z,104
2018-04-28T03:51:45.777Z,112
2018-04-28T03:52:46.544Z,128
2018-04-28T03:53:47.372Z,144
2018-04-28T03:54:48.105Z,156
2018-04-28T03:55:48.833Z,172
2018-04-28T03:56:49.559Z,192
2018-04-28T03:57:50.286Z,212
2018-04-28T03:58:51.071Z,232
2018-04-28T03:59:51.852Z,252
2018-04-28T04:00:52.603Z,272
2018-04-28T04:01:53.344Z,296
2018-04-28T04:02:54.071Z,324
2018-04-28T04:03:54.873Z,348
2018-04-28T04:04:55.594Z,384
2018-04-28T04:05:56.330Z,416
2018-04-28T04:06:57.064Z,452
2018-04-28T04:07:57.780Z,484
2018-04-28T04:08:58.513Z,512
2018-04-28T04:09:59.311Z,548
2018-04-28T04:11:00.115Z,576
2018-04-28T04:12:00.773Z,616
2018-04-28T04:13:01.583Z,656
2018-04-28T04:14:02.418Z,700
2018-04-28T04:15:03.153Z,744
2018-04-28T04:16:03.903Z,788
2018-04-28T04:17:04.640Z,836
2018-04-28T04:18:05.369Z,880
2018-04-28T04:19:06.535Z,924
2018-04-28T04:20:07.188Z,972
2018-04-28T04:21:07.907Z,1012
2018-04-28T04:22:08.638Z,1056
2018-04-28T04:23:09.385Z,1108
2018-04-28T04:24:10.589Z,1160
2018-04-28T04:25:11.325Z,1212
2018-04-28T04:26:12.136Z,1272
2018-04-28T04:27:12.865Z,1332
2018-04-28T04:28:13.592Z,1388
2018-04-28T04:29:14.318Z,1440
2018-04-28T04:30:15.052Z,1488
2018-04-28T04:31:15.844Z,1532
2018-04-28T04:32:16.583Z,1576
2018-04-28T04:33:17.300Z,1616
2018-04-28T04:34:18.086Z,1648
2018-04-28T04:35:18.879Z,1680
2018-04-28T04:36:19.619Z,1724
2018-04-28T04:37:20.427Z,1788
2018-04-28T04:38:21.223Z,1856
2018-04-28T04:39:21.950Z,1936
2018-04-28T04:40:22.690Z,1992
2018-04-28T04:41:23.475Z,2028
2018-04-28T04:42:24.200Z,2068
2018-04-28T04:43:25.023Z,2116
2018-04-28T04:44:25.763Z,2196
2018-04-28T04:45:26.584Z,2332
2018-04-28T04:46:27.897Z,2480
2018-04-28T04:47:28.690Z,2560
2018-04-28T04:48:29.408Z,2588
2018-04-28T04:49:30.143Z,2604
2018-04-28T04:50:30.895Z,2628
2018-04-28T04:51:31.738Z,2692
2018-04-28T04:52:32.464Z,2772
2018-04-28T04:53:33.266Z,2844
2018-04-28T04:54:34.000Z,2904
2018-04-28T04:55:34.727Z,2968
2018-04-28T04:56:35.813Z,3024
2018-04-28T04:57:36.554Z,3068
2018-04-28T04:58:37.349Z,3148
2018-04-28T04:59:38.087Z,3224
2018-04-28T05:00:38.881Z,3324
2018-04-28T05:01:39.625Z,3428
2018-04-28T05:02:40.416Z,3536
2018-04-28T05:03:41.149Z,3636
2018-04-28T05:04:42.072Z,3768
2018-04-28T05:05:42.815Z,3916
2018-04-28T05:06:43.597Z,4056
2018-04-28T05:07:44.331Z,4188
2018-04-28T05:08:45.072Z,4308
2018-04-28T05:09:45.870Z,4536
2018-04-28T05:10:46.644Z,4940
2018-04-28T05:11:47.444Z,5412
2018-04-28T05:12:48.184Z,5824
2018-04-28T05:13:48.922Z,6056
2018-04-28T05:14:49.724Z,6064
2018-04-28T05:15:50.458Z,5952
2018-04-28T05:16:51.262Z,5836
2018-04-28T05:17:52.071Z,6020
2018-04-28T05:18:52.836Z,6456
2018-04-28T05:19:53.577Z,7016
2018-04-28T05:20:54.442Z,7792
2018-04-28T05:21:55.186Z,7600
2018-04-28T05:22:55.965Z,6952
2018-04-28T05:23:56.750Z,6764
2018-04-28T05:24:57.493Z,5420
2018-04-28T05:25:58.346Z,5224
2018-04-28T05:26:59.163Z,6640
2018-04-28T05:27:59.944Z,6172
2018-04-28T05:29:00.673Z,6040
2018-04-28T05:30:01.487Z,6592
2018-04-28T05:31:02.289Z,6600
2018-04-28T05:32:03.085Z,6556
2018-04-28T05:33:03.808Z,6572
2018-04-28T05:34:04.608Z,7000
2018-04-28T05:35:05.403Z,6408
2018-04-28T05:36:06.564Z,6280
2018-04-28T05:37:07.325Z,7216
2018-04-28T05:38:08.064Z,6984
2018-04-28T05:39:08.808Z,7032
2018-04-28T05:40:09.592Z,7060
2018-04-28T05:41:10.324Z,6984
2018-04-28T05:42:11.357Z,7116
2018-04-28T05:43:12.180Z,7020
2018-04-28T05:44:12.908Z,7188
2018-04-28T05:45:13.722Z,7284
2018-04-28T05:46:14.463Z,7040
2018-04-28T05:47:15.263Z,7136
2018-04-28T05:48:16.140Z,8044
2018-04-28T05:49:16.831Z,7436
2018-04-28T05:50:17.573Z,7768
2018-04-28T05:51:18.379Z,8808
2018-04-28T05:52:19.183Z,8408
2018-04-28T05:53:19.933Z,7804
2018-04-28T05:54:20.666Z,8332
2018-04-28T05:55:21.428Z,9564
2018-04-28T05:56:22.217Z,11984
2018-04-28T05:57:22.946Z,11404
2018-04-28T05:58:23.705Z,13100
2018-04-28T05:59:24.545Z,13840
2018-04-28T06:00:25.280Z,14068
2018-04-28T06:01:26.059Z,15640
2018-04-28T06:02:26.809Z,13856
2018-04-28T06:03:27.667Z,13296
2018-04-28T06:04:28.505Z,12560
2018-04-28T06:05:29.301Z,12720
2018-04-28T06:06:30.041Z,13592
2018-04-28T06:07:30.790Z,13680
2018-04-28T06:08:31.537Z,13168
2018-04-28T06:09:32.363Z,12852
2018-04-28T06:10:33.161Z,12412
2018-04-28T06:11:33.895Z,13284
2018-04-28T06:12:34.698Z,12844
2018-04-28T06:13:35.472Z,12988
2018-04-28T06:14:36.291Z,13480
2018-04-28T06:15:37.033Z,13648
2018-04-28T06:16:37.752Z,13792
2018-04-28T06:17:38.485Z,13488
2018-04-28T06:18:39.280Z,13728
2018-04-28T06:19:40.011Z,14584
2018-04-28T06:20:40.837Z,13588
2018-04-28T06:21:41.562Z,13776
2018-04-28T06:22:42.301Z,14520
2018-04-28T06:23:43.097Z,14532
2018-04-28T06:24:43.838Z,14860
2018-04-28T06:25:44.586Z,13492
2018-04-28T06:26:45.369Z,11528
2018-04-28T06:27:46.108Z,8952
2018-04-28T06:28:46.898Z,7860
2018-04-28T06:29:47.670Z,8248
2018-04-28T06:30:48.502Z,8516
2018-04-28T06:31:49.229Z,8560
2018-04-28T06:32:50.014Z,8596
2018-04-28T06:33:50.780Z,8672
2018-04-28T06:34:51.534Z,8728
2018-04-28T06:35:52.502Z,8744
2018-04-28T06:36:53.145Z,8764
2018-04-28T06:37:53.935Z,8576
2018-04-28T06:38:54.684Z,8984
2018-04-28T06:39:55.513Z,9116
2018-04-28T06:40:56.346Z,9208
2018-04-28T06:41:57.082Z,9100
2018-04-28T06:42:57.893Z,9680
2018-04-28T06:43:58.635Z,10088
2018-04-28T06:44:59.374Z,9812
2018-04-28T06:46:00.102Z,9964
2018-04-28T06:47:00.845Z,9972
2018-04-28T06:48:01.650Z,9648
2018-04-28T06:49:02.474Z,9464
2018-04-28T06:50:03.218Z,9644
2018-04-28T06:51:04.075Z,10620
2018-04-28T06:52:04.804Z,10880
2018-04-28T06:53:05.544Z,11924
2018-04-28T06:54:06.258Z,10252
2018-04-28T06:55:07.075Z,10720
2018-04-28T06:56:07.838Z,11536
2018-04-28T06:57:08.650Z,15696
2018-04-28T06:58:09.788Z,11844
2018-04-28T06:59:10.534Z,11984
2018-04-28T07:00:11.268Z,13220
2018-04-28T07:01:12.008Z,13908
2018-04-28T07:02:12.749Z,13864
2018-04-28T07:03:13.884Z,14520
2018-04-28T07:04:14.733Z,15776
2018-04-28T07:05:16.489Z,17344
2018-04-28T07:06:17.439Z,19200
2018-04-28T07:07:18.707Z,20064
2018-04-28T07:08:19.485Z,15908
2018-04-28T07:09:20.296Z,14868
2018-04-28T07:10:21.378Z,13796
2018-04-28T07:11:22.101Z,14324
2018-04-28T07:12:22.962Z,14328
2018-04-28T07:13:23.687Z,14780
2018-04-28T07:14:24.433Z,15148
2018-04-28T07:15:25.170Z,14896
2018-04-28T07:16:25.900Z,14736
2018-04-28T07:17:26.651Z,14952
2018-04-28T07:18:27.383Z,15732
2018-04-28T07:19:28.124Z,19648
2018-04-28T07:20:28.924Z,25312
2018-04-28T07:21:29.721Z,21024
2018-04-28T07:22:31.282Z,17536
2018-04-28T07:24:34.064Z,19168
2018-04-28T07:25:36.659Z,42976
2018-04-28T07:26:37.341Z,24416
2018-04-28T07:27:38.807Z,34400
2018-04-28T07:28:39.507Z,31488
2018-04-28T07:29:40.380Z,26208
2018-04-28T07:30:41.423Z,51008
2018-04-28T07:31:42.190Z,52352
2018-04-28T07:32:43.306Z,52000
2018-04-28T07:34:45.765Z,40896
2018-04-28T07:35:46.640Z,51648
2018-04-28T07:36:48.157Z,38048
2018-04-28T07:37:49.744Z,25408
2018-04-28T07:38:50.418Z,21568
2018-04-28T07:39:51.178Z,18624
2018-04-28T07:40:52.082Z,16656
2018-04-28T07:41:52.865Z,16320
2018-04-28T07:42:53.674Z,16136
2018-04-28T07:43:54.415Z,16124
2018-04-28T07:44:55.136Z,17048
2018-04-28T07:45:55.877Z,19936
2018-04-28T07:46:56.859Z,42848
2018-04-28T07:47:57.926Z,50560
2018-04-28T07:48:59.050Z,51808
2018-04-28T07:50:00.217Z,52544
2018-04-28T07:51:01.009Z,52736
2018-04-28T07:52:02.289Z,45952
2018-04-28T07:54:04.118Z,49312
2018-04-28T07:55:05.055Z,51744
2018-04-28T07:56:05.741Z,55584
2018-04-28T07:57:07.108Z,61472
2018-04-28T07:58:07.903Z,57856
2018-04-28T07:59:08.996Z,60672
2018-04-28T08:00:09.739Z,55936
2018-04-28T08:01:10.472Z,52928
2018-04-28T08:02:11.202Z,52864
2018-04-28T08:03:11.950Z,55488
2018-04-28T08:04:12.786Z,53760
2018-04-28T08:05:13.667Z,48448
2018-04-28T08:06:14.462Z,50304
2018-04-28T08:07:15.652Z,49760
2018-04-28T08:08:16.438Z,47328
2018-04-28T08:09:17.321Z,22048
2018-04-28T08:10:18.125Z,15228
2018-04-28T08:11:18.863Z,11224
2018-04-28T08:12:19.614Z,11416
2018-04-28T08:13:20.401Z,11832
2018-04-28T08:14:21.432Z,12680
2018-04-28T08:15:22.576Z,13656
2018-04-28T08:16:23.245Z,15268
2018-04-28T08:17:24.046Z,18304
2018-04-28T08:18:25.014Z,21856
2018-04-28T08:19:26.736Z,44064
2018-04-28T08:20:27.456Z,37152
2018-04-28T08:21:28.204Z,55616
2018-04-28T08:22:28.949Z,66528
2018-04-28T08:23:29.765Z,67584
2018-04-28T08:24:30.555Z,72160
2018-04-28T08:25:31.397Z,75424
2018-04-28T08:26:32.160Z,69216
2018-04-28T08:27:32.843Z,67872
2018-04-28T08:28:33.586Z,64256
2018-04-28T08:29:34.335Z,67456
2018-04-28T08:30:35.073Z,64672
2018-04-28T08:31:35.817Z,43136
2018-04-28T08:32:36.713Z,63232
2018-04-28T08:33:37.467Z,63488
2018-04-28T08:34:38.377Z,64288
2018-04-28T08:35:39.156Z,69664
2018-04-28T08:36:39.946Z,69120
2018-04-28T08:37:41.332Z,78592
2018-04-28T08:38:42.023Z,76160
2018-04-28T08:39:43.063Z,72576
2018-04-28T08:40:43.812Z,64768
2018-04-28T08:41:44.552Z,72000
2018-04-28T08:42:45.291Z,62720
2018-04-28T08:43:46.063Z,65088
2018-04-28T08:44:46.905Z,59520
2018-04-28T08:45:47.668Z,57632
2018-04-28T08:46:48.548Z,61504
2018-04-28T08:47:49.252Z,76000
2018-04-28T08:48:50.005Z,57888
2018-04-28T08:49:50.750Z,65184
2018-04-28T08:50:51.481Z,48320
2018-04-28T08:51:52.251Z,58592
2018-04-28T08:52:53.043Z,69728
2018-04-28T08:53:53.833Z,75712
2018-04-28T08:54:55.408Z,64512
2018-04-28T08:55:56.125Z,53792
2018-04-28T08:56:58.381Z,64160
2018-04-28T08:57:59.063Z,57984
2018-04-28T08:58:59.818Z,61696
2018-04-28T09:00:01.141Z,48192
2018-04-28T09:01:02.044Z,62400
2018-04-28T09:02:02.780Z,44896
2018-04-28T09:03:03.636Z,45792
2018-04-28T09:04:05.329Z,47904
2018-04-28T09:05:06.855Z,55200
2018-04-28T09:06:07.634Z,47008
2018-04-28T09:07:08.370Z,54240
2018-04-28T09:08:09.141Z,54912
2018-04-28T09:09:09.875Z,54400
2018-04-28T09:10:11.183Z,52448
2018-04-28T09:11:11.990Z,50912
2018-04-28T09:12:13.343Z,52704
2018-04-28T09:13:14.409Z,53632
2018-04-28T09:14:15.708Z,48320
2018-04-28T09:15:16.734Z,33760
2018-04-28T09:16:17.957Z,32608
2018-04-28T09:17:19.502Z,34368
2018-04-28T09:18:21.323Z,40544
2018-04-28T09:19:22.394Z,36512
2018-04-28T09:20:23.185Z,67456
2018-04-28T09:21:24.337Z,61920
2018-04-28T09:22:25.136Z,64160
2018-04-28T09:23:25.864Z,65952
2018-04-28T09:24:26.623Z,53568
2018-04-28T09:25:27.444Z,38496
2018-04-28T09:26:28.410Z,36960
2018-04-28T09:27:29.172Z,36608
2018-04-28T09:28:29.901Z,43328
2018-04-28T09:29:30.636Z,42976
2018-04-28T09:30:31.462Z,48992
2018-04-28T09:31:32.363Z,48384
2018-04-28T09:32:33.164Z,52032
2018-04-28T09:33:33.913Z,62688
2018-04-28T09:34:34.682Z,58272
2018-04-28T09:35:35.474Z,41024
2018-04-28T09:36:36.710Z,36800
2018-04-28T09:37:37.491Z,31200
2018-04-28T09:38:38.247Z,35104
2018-04-28T09:39:38.989Z,32768
2018-04-28T09:40:39.757Z,38272
2018-04-28T09:41:41.105Z,42720
2018-04-28T09:42:41.783Z,38688
2018-04-28T09:43:42.527Z,46048
2018-04-28T09:44:43.391Z,98848
2018-04-28T09:45:44.094Z,90592
2018-04-28T09:46:44.886Z,84704
2018-04-28T09:47:45.678Z,93056
2018-04-28T09:48:46.429Z,93600
2018-04-28T09:49:47.178Z,92032
2018-04-28T09:50:47.957Z,91904
2018-04-28T09:51:49.223Z,89536
2018-04-28T09:52:50.223Z,90336
2018-04-28T09:53:50.969Z,94528
2018-04-28T09:54:51.724Z,100256
2018-04-28T09:55:52.475Z,94176
2018-04-28T09:56:53.215Z,91840
2018-04-28T09:57:53.959Z,90592
2018-04-28T09:58:54.784Z,90816
2018-04-28T09:59:55.535Z,93120
2018-04-28T10:00:56.292Z,91744
2018-04-28T10:01:57.104Z,56640
2018-04-28T10:02:57.880Z,31040
2018-04-28T10:03:59.107Z,98656
2018-04-28T10:05:00.279Z,75264
2018-04-28T10:06:01.116Z,24128
2018-04-28T10:07:02.490Z,22656
2018-04-28T10:08:03.244Z,20832
2018-04-28T10:09:04.023Z,17376
2018-04-28T10:10:04.798Z,14340
2018-04-28T10:11:06.142Z,12992
2018-04-28T10:12:07.393Z,12604
2018-04-28T10:13:08.075Z,13068
2018-04-28T10:14:08.938Z,14176
2018-04-28T10:15:09.707Z,15976
2018-04-28T10:16:10.517Z,18848
2018-04-28T10:17:11.299Z,22944
2018-04-28T10:18:12.157Z,28096
2018-04-28T10:19:13.321Z,33024
2018-04-28T10:20:14.127Z,35936
2018-04-28T10:21:15.612Z,39072
2018-04-28T10:22:16.297Z,39584
2018-04-28T10:23:17.095Z,43680
2018-04-28T10:24:17.833Z,43648
2018-04-28T10:25:18.563Z,43584
2018-04-28T10:26:19.312Z,43648
2018-04-28T10:27:20.053Z,49472
2018-04-28T10:28:20.884Z,51872
2018-04-28T10:29:21.628Z,44896
2018-04-28T10:30:22.453Z,41056
2018-04-28T10:31:23.194Z,38912
2018-04-28T10:32:23.920Z,37088
2018-04-28T10:33:24.664Z,35776
2018-04-28T10:34:25.488Z,35584
2018-04-28T10:35:26.262Z,35680
2018-04-28T10:36:27.006Z,32832
2018-04-28T10:37:27.741Z,29312
2018-04-28T10:38:28.494Z,26304
2018-04-28T10:39:29.285Z,24416
2018-04-28T10:40:30.079Z,24448
2018-04-28T10:41:31.228Z,34304
2018-04-28T10:42:32.023Z,26368
2018-04-28T10:43:32.766Z,98336
2018-04-28T10:44:33.528Z,28000
2018-04-28T10:45:34.273Z,49120
2018-04-28T10:46:35.027Z,28864
2018-04-28T10:47:35.787Z,90720
2018-04-28T10:48:36.516Z,33856
2018-04-28T10:49:37.283Z,85824
2018-04-28T10:50:38.036Z,94176
2018-04-28T10:51:38.953Z,47104
2018-04-28T10:52:39.700Z,35072
2018-04-28T10:53:40.560Z,39008
2018-04-28T10:54:41.194Z,116032
2018-04-28T10:55:41.951Z,48384
2018-04-28T10:56:43.033Z,45472
2018-04-28T10:57:43.765Z,35360
2018-04-28T10:58:44.501Z,29472
2018-04-28T10:59:45.264Z,28160
2018-04-28T11:00:46.036Z,29056
2018-04-28T11:01:46.784Z,32992
2018-04-28T11:02:47.540Z,44064
2018-04-28T11:03:48.296Z,97312
2018-04-28T11:04:49.088Z,38624
2018-04-28T11:05:50.009Z,39008
2018-04-28T11:06:50.723Z,40640
2018-04-28T11:07:51.471Z,45856
2018-04-28T11:08:52.203Z,40768
2018-04-28T11:09:52.946Z,71136
2018-04-28T11:10:53.727Z,48160
2018-04-28T11:11:54.865Z,78400
2018-04-28T11:12:55.611Z,114432
2018-04-28T11:13:56.364Z,105216
2018-04-28T11:14:57.125Z,69696
2018-04-28T11:15:57.887Z,33728
2018-04-28T11:16:58.722Z,35264
2018-04-28T11:17:59.470Z,32320
2018-04-28T11:19:00.227Z,43808
2018-04-28T11:20:01.124Z,51808
2018-04-28T11:21:01.852Z,48416
2018-04-28T11:22:02.595Z,59136
2018-04-28T11:23:03.334Z,98304
2018-04-28T11:24:04.083Z,71936
2018-04-28T11:25:04.823Z,38848
2018-04-28T11:26:05.573Z,42464
2018-04-28T11:27:06.352Z,122080
2018-04-28T11:28:07.127Z,68256
2018-04-28T11:29:07.929Z,118624
2018-04-28T11:30:08.767Z,112256
2018-04-28T11:31:09.581Z,26048
2018-04-28T11:32:10.326Z,22784
2018-04-28T11:33:11.078Z,25440
2018-04-28T11:34:11.853Z,26656
2018-04-28T11:35:12.607Z,24224
2018-04-28T11:36:13.402Z,22048
2018-04-28T11:37:14.176Z,21280
2018-04-28T11:38:14.963Z,20992
2018-04-28T11:39:15.820Z,19680
2018-04-28T11:40:16.536Z,18656
2018-04-28T11:41:17.280Z,17536
2018-04-28T11:42:18.029Z,16632
2018-04-28T11:43:18.761Z,16928
2018-04-28T11:44:19.585Z,18272
2018-04-28T11:45:20.321Z,21568
2018-04-28T11:46:21.076Z,23680
2018-04-28T11:47:21.822Z,23904
2018-04-28T11:48:22.574Z,23392
2018-04-28T11:49:23.464Z,22208
2018-04-28T11:50:24.251Z,21472
2018-04-28T11:51:25.147Z,20800
2018-04-28T11:52:25.880Z,19680
2018-04-28T11:53:26.627Z,18400
2018-04-28T11:54:27.375Z,17120
2018-04-28T11:55:28.337Z,15812
2018-04-28T11:56:29.157Z,15504
2018-04-28T11:57:29.905Z,15900
2018-04-28T11:58:30.655Z,17696
2018-04-28T11:59:31.381Z,21120
2018-04-28T12:00:33.332Z,26656
2018-04-28T12:01:34.759Z,35360
2018-04-28T12:02:35.717Z,46336
2018-04-28T12:03:36.461Z,40000
2018-04-28T12:04:37.339Z,37888
2018-04-28T12:05:38.123Z,32768
2018-04-28T12:06:38.784Z,36608
2018-04-28T12:07:39.517Z,34880
2018-04-28T12:08:40.339Z,31136
2018-04-28T12:09:41.164Z,28128
2018-04-28T12:10:42.307Z,26720
2018-04-28T12:11:43.041Z,24576
2018-04-28T12:12:43.792Z,20992
2018-04-28T12:13:44.530Z,17664
2018-04-28T12:14:45.274Z,15400
2018-04-28T12:15:46.005Z,13548
2018-04-28T12:16:46.820Z,12804
2018-04-28T12:17:47.568Z,12908
2018-04-28T12:18:48.377Z,14528
2018-04-28T12:19:49.155Z,18048
2018-04-28T12:20:49.899Z,22144
2018-04-28T12:21:50.635Z,27744
2018-04-28T12:22:51.773Z,30592
2018-04-28T12:23:52.527Z,29984
2018-04-28T12:24:53.276Z,28672
2018-04-28T12:25:54.021Z,27872
2018-04-28T12:26:54.759Z,27584
2018-04-28T12:27:55.563Z,26208
2018-04-28T12:28:56.385Z,23200
2018-04-28T12:29:57.247Z,19936
2018-04-28T12:30:58.033Z,17216
2018-04-28T12:31:58.774Z,15720
2018-04-28T12:32:59.920Z,15720
2018-04-28T12:34:00.666Z,16164
2018-04-28T12:35:01.439Z,16832
2018-04-28T12:36:02.300Z,17568
2018-04-28T12:37:03.149Z,17760
2018-04-28T12:38:03.929Z,17344
2018-04-28T12:39:04.669Z,16244
2018-04-28T12:40:05.422Z,15532
2018-04-28T12:41:06.290Z,15392
2018-04-28T12:42:07.018Z,16136
2018-04-28T12:43:07.843Z,18080
2018-04-28T12:44:08.661Z,19552
2018-04-28T12:45:09.639Z,22464
2018-04-28T12:46:10.368Z,25984
2018-04-28T12:47:11.198Z,29120
2018-04-28T12:48:11.992Z,30944
2018-04-28T12:49:13.217Z,31200
2018-04-28T12:50:14.462Z,30912
2018-04-28T12:51:15.204Z,30272
2018-04-28T12:52:15.952Z,29952
2018-04-28T12:53:16.701Z,29344
2018-04-28T12:54:17.468Z,28224
2018-04-28T12:55:18.261Z,26880
2018-04-28T12:56:19.002Z,26240
2018-04-28T12:57:19.731Z,27520
2018-04-28T12:58:20.835Z,36768
2018-04-28T12:59:22.348Z,45632
2018-04-28T13:00:23.439Z,48832
2018-04-28T13:01:24.200Z,77760
2018-04-28T13:02:25.035Z,64736
2018-04-28T13:03:25.823Z,108672
2018-04-28T13:04:27.138Z,67392
2018-04-28T13:05:28.010Z,66656
2018-04-28T13:06:28.752Z,49312
2018-04-28T13:07:29.600Z,30176
2018-04-28T13:08:30.426Z,89696
2018-04-28T13:09:31.389Z,86144
2018-04-28T13:10:32.184Z,26432
2018-04-28T13:11:32.990Z,25248
2018-04-28T13:12:33.737Z,53856
2018-04-28T13:13:34.535Z,26432
2018-04-28T13:14:35.362Z,24544
2018-04-28T13:15:36.128Z,24416
2018-04-28T13:16:36.884Z,25600
2018-04-28T13:17:38.252Z,27008
2018-04-28T13:18:39.551Z,26368
2018-04-28T13:19:40.298Z,24832
2018-04-28T13:20:41.690Z,23680
2018-04-28T13:21:42.449Z,24224
2018-04-28T13:22:43.530Z,28928
2018-04-28T13:23:44.261Z,30112
2018-04-28T13:24:45.004Z,29216
2018-04-28T13:25:46.174Z,27456
2018-04-28T13:26:47.045Z,29856
2018-04-28T13:27:48.403Z,101216
2018-04-28T13:28:49.245Z,63520
2018-04-28T13:29:50.041Z,92896
2018-04-28T13:30:50.776Z,36608
2018-04-28T13:31:51.529Z,83104
2018-04-28T13:32:52.437Z,24128
2018-04-28T13:33:53.171Z,62784
2018-04-28T13:34:54.011Z,28352
2018-04-28T13:35:54.764Z,27648
2018-04-28T13:36:55.519Z,29280
2018-04-28T13:37:56.826Z,28800
2018-04-28T13:38:58.039Z,27680
2018-04-28T13:39:58.777Z,24736
2018-04-28T13:40:59.585Z,22048